Time;durP1;ratioP1;P1;durP2;ratioP2;P2;SDS_P1;SDS_P2;PMS_P1;PMS_P2;Temp;Humidity;BMP_temperature;BMP_pressure;BME280_temperature;BME280_humidity;BME280_pressure;Samples;Min_cycle;Max_cycle;Signal;HPM_P1;HPM_P2
2023/09/15 00:08:50;;;;;;;5.32;3.05;;;;;;;27.79;52.17;101647.38;21063792;28;20051;-54
2023/09/15 00:18:51;;;;;;;7.35;2.80;;;;;;;27.76;52.05;101636.72;21072082;28;20124;-58
2023/09/15 00:28:54;;;;;;;5.97;3.13;;;;;;;27.85;51.81;101659.34;21043308;28;20078;-58
2023/09/15 00:39:17;;;;;;;4.85;2.50;;;;;;;27.87;51.38;101682.38;21078256;28;20048;-58
2023/09/15 00:49:22;;;;;;;3.97;2.00;;;;;;;27.88;50.95;101691.66;21063936;28;20040;-59
2023/09/15 00:59:24;;;;;;;4.22;2.53;;;;;;;27.91;50.68;101710.72;21068877;28;20041;-59
2023/09/15 01:09:25;;;;;;;4.28;2.55;;;;;;;27.92;50.48;101721.66;21073320;28;20040;-59
2023/09/15 01:19:59;;;;;;;3.85;2.40;;;;;;;27.91;50.79;101728.44;21059564;28;20039;-60
2023/09/15 01:30:02;;;;;;;9.35;2.65;;;;;;;27.96;50.39;101730.31;21065202;28;20052;-60
2023/09/15 01:40:05;;;;;;;6.15;2.35;;;;;;;27.81;50.28;101700.47;21069625;28;20048;-62
2023/09/15 01:50:08;;;;;;;3.55;2.45;;;;;;;28.00;50.36;101742.63;21077454;28;20074;-60
2023/09/15 02:00:10;;;;;;;2.90;2.03;;;;;;;28.01;50.01;101755.53;21081993;28;20473;-59
2023/09/15 02:10:11;;;;;;;3.63;2.25;;;;;;;28.03;49.93;101775.75;21084336;28;20449;-60
2023/09/15 02:20:13;;;;;;;3.03;2.33;;;;;;;28.05;49.70;101784.72;21088716;28;20544;-61
2023/09/15 02:30:14;;;;;;;5.10;2.35;;;;;;;28.00;49.58;101787.63;21087321;28;20040;-60
2023/09/15 02:40:16;;;;;;;3.13;2.15;;;;;;;28.06;49.55;101797.66;21081993;28;20097;-60
2023/09/15 02:50:17;;;;;;;4.18;2.30;;;;;;;28.06;49.38;101820.97;21069417;28;20101;-61
2023/09/15 03:00:20;;;;;;;5.35;2.13;;;;;;;28.08;49.49;101812.22;21066414;28;20079;-61
2023/09/15 03:10:21;;;;;;;5.60;2.35;;;;;;;28.08;49.19;101815.03;21083093;28;20479;-61
2023/09/15 03:20:23;;;;;;;4.07;2.30;;;;;;;28.10;49.09;101809.94;21084228;28;20048;-61
2023/09/15 03:30:27;;;;;;;3.33;2.05;;;;;;;28.12;49.11;101808.47;21075982;28;20078;-61
2023/09/15 03:40:30;;;;;;;3.58;2.15;;;;;;;28.13;48.90;101820.56;21082480;28;20044;-63
2023/09/15 03:50:32;;;;;;;2.58;1.90;;;;;;;28.14;48.86;101810.19;21056145;28;20185;-56
2023/09/15 04:00:36;;;;;;;2.90;1.85;;;;;;;28.16;48.86;101807.88;21073111;28;20043;-58
2023/09/15 04:10:38;;;;;;;5.55;1.98;;;;;;;28.16;48.62;101814.34;21070509;28;20074;-59
2023/09/15 04:20:42;;;;;;;2.80;1.88;;;;;;;28.16;48.57;101814.34;21060850;28;20110;-59
2023/09/15 04:30:43;;;;;;;3.03;1.90;;;;;;;28.16;48.56;101808.69;21077402;28;20109;-59
2023/09/15 04:40:45;;;;;;;4.47;1.75;;;;;;;28.12;48.46;101814.09;21068364;28;20066;-60
2023/09/15 04:50:46;;;;;;;3.15;1.80;;;;;;;28.15;48.44;101789.31;21078255;28;20098;-59
2023/09/15 05:00:48;;;;;;;3.50;1.90;;;;;;;28.07;48.32;101777.63;21069626;28;20556;-59
2023/09/15 05:10:49;;;;;;;2.85;1.63;;;;;;;28.09;48.68;101764.09;21075217;28;20073;-59
2023/09/15 05:20:51;;;;;;;4.32;1.45;;;;;;;28.16;48.37;101769.31;21072629;28;20048;-59
2023/09/15 05:30:59;;;;;;;1.75;1.40;;;;;;;28.15;48.44;101756.38;21074435;28;20040;-59
2023/09/15 05:41:00;;;;;;;2.67;1.40;;;;;;;28.18;48.14;101733.25;21075510;28;20048;-59
2023/09/15 05:51:03;;;;;;;4.25;1.70;;;;;;;28.16;48.14;101738.34;21070060;28;20437;-59
2023/09/15 06:01:06;;;;;;;2.17;1.25;;;;;;;28.18;48.14;101727.63;21067122;28;20035;-59
2023/09/15 06:11:07;;;;;;;1.85;1.65;;;;;;;28.07;48.02;101703.66;21069417;28;20089;-58
2023/09/15 06:21:12;;;;;;;2.58;1.58;;;;;;;28.06;48.04;101714.06;21066993;28;20040;-60
2023/09/15 06:31:13;;;;;;;3.35;1.27;;;;;;;28.18;47.95;101729.59;21067667;28;20489;-59
2023/09/15 06:41:14;;;;;;;2.45;1.40;;;;;;;28.15;47.81;101745.13;21079372;28;20036;-60
2023/09/15 06:51:16;;;;;;;1.85;1.45;;;;;;;28.16;47.81;101734.72;21081686;28;20627;-59
2023/09/15 07:01:17;;;;;;;2.58;1.20;;;;;;;28.16;47.81;101738.34;21079938;28;20093;-59
2023/09/15 07:11:18;;;;;;;1.60;0.95;;;;;;;28.16;47.85;101729.91;21065620;28;20548;-60
2023/09/15 07:21:20;;;;;;;1.95;1.65;;;;;;;28.01;47.64;101716.16;21075765;28;20117;-58
2023/09/15 07:31:22;;;;;;;1.63;1.27;;;;;;;28.15;47.62;101733.88;21055913;28;20483;-59
2023/09/15 07:41:26;;;;;;;1.58;1.48;;;;;;;28.13;47.42;101750.22;21083597;28;20032;-60
2023/09/15 07:51:33;;;;;;;1.30;1.20;;;;;;;28.12;47.47;101740.13;21077455;28;20048;-59
2023/09/15 08:01:34;;;;;;;1.30;1.20;;;;;;;28.11;47.39;101738.47;21078724;28;20109;-59
2023/09/15 08:11:38;;;;;;;1.27;1.15;;;;;;;28.10;47.26;101737.63;21071225;28;20036;-60
2023/09/15 08:21:39;;;;;;;2.25;1.25;;;;;;;27.65;47.15;101652.09;21068042;28;20044;-59
2023/09/15 08:31:41;;;;;;;1.60;1.10;;;;;;;28.06;47.23;101722.50;21070415;28;20040;-57
2023/09/15 08:41:53;;;;;;;1.73;1.17;;;;;;;28.06;47.15;101724.50;21071075;28;20048;-60
2023/09/15 08:51:55;;;;;;;1.63;1.27;;;;;;;28.06;47.14;101719.69;21072110;28;20376;-59
2023/09/15 09:01:57;;;;;;;0.77;0.77;;;;;;;27.97;47.46;101698.22;21070874;28;20044;-59
2023/09/15 09:11:59;;;;;;;1.33;1.17;;;;;;;28.06;47.09;101713.25;21072349;28;20887;-60
2023/09/15 09:22:04;;;;;;;1.42;1.20;;;;;;;28.04;47.01;101709.88;21048408;28;20075;-60
2023/09/15 09:32:06;;;;;;;1.60;0.98;;;;;;;28.04;47.10;101709.88;21021462;28;20051;-59
2023/09/15 09:42:07;;;;;;;1.38;1.27;;;;;;;28.01;47.36;101721.78;21072230;28;20395;-60
2023/09/15 09:52:09;;;;;;;0.88;0.88;;;;;;;27.60;47.06;101666.28;21068767;28;20048;-60
2023/09/15 10:02:11;;;;;;;1.30;1.15;;;;;;;27.99;47.28;101732.50;21067992;28;20058;-60
2023/09/15 10:12:14;;;;;;;1.15;0.90;;;;;;;27.98;47.07;101751.34;21078474;28;20040;-59
2023/09/15 10:22:16;;;;;;;2.28;1.02;;;;;;;27.85;46.73;101724.88;21082783;28;20040;-59
2023/09/15 10:32:18;;;;;;;1.10;1.00;;;;;;;27.95;46.98;101742.69;21078988;28;20396;-60
2023/09/15 10:42:20;;;;;;;1.20;1.10;;;;;;;27.94;46.94;101755.94;21072260;28;20051;-59
2023/09/15 10:52:38;;;;;;;2.28;1.30;;;;;;;27.86;46.91;101756.66;21076545;28;20372;-59
2023/09/15 11:02:40;;;;;;;2.17;1.42;;;;;;;27.91;46.93;101767.00;21060195;28;20036;-59
2023/09/15 11:12:44;;;;;;;1.50;1.23;;;;;;;27.79;46.77;101765.47;21074150;28;20488;-60
2023/09/15 11:22:46;;;;;;;4.20;1.27;;;;;;;27.86;46.98;101780.00;21079278;28;20425;-59
2023/09/15 11:32:48;;;;;;;2.08;1.20;;;;;;;27.69;46.97;101754.38;21014532;28;20044;-59
2023/09/15 11:43:00;;;;;;;4.50;1.50;;;;;;;27.75;47.05;101770.06;20998128;28;20044;-59
2023/09/15 11:53:04;;;;;;;2.80;1.33;;;;;;;27.84;47.03;101784.25;20999425;28;20128;-59
2023/09/15 12:03:07;;;;;;;2.55;1.40;;;;;;;27.82;46.96;101787.38;21080391;28;20040;-58
2023/09/15 12:13:08;;;;;;;1.75;1.20;;;;;;;27.81;46.97;101802.59;21081147;28;20040;-59
2023/09/15 12:23:15;;;;;;;1.23;1.05;;;;;;;27.74;46.88;101778.81;21080320;28;20098;-60
2023/09/15 12:33:19;;;;;;;2.83;1.10;;;;;;;27.80;47.05;101792.47;21078824;28;20040;-60
2023/09/15 12:43:20;;;;;;;1.48;1.10;;;;;;;27.77;47.08;101784.66;21078705;28;20391;-58
2023/09/15 12:53:21;;;;;;;1.98;1.35;;;;;;;27.78;47.01;101793.94;21078504;28;20069;-58
2023/09/15 13:03:24;;;;;;;1.33;1.10;;;;;;;27.77;47.02;101801.53;21077477;28;20540;-56
2023/09/15 13:13:25;;;;;;;1.50;1.10;;;;;;;27.75;46.95;101786.09;21076587;28;20480;-59
2023/09/15 13:23:26;;;;;;;1.33;1.10;;;;;;;27.59;46.73;101777.06;21076571;28;20040;-59
2023/09/15 13:33:28;;;;;;;1.33;1.05;;;;;;;27.74;46.82;101778.81;21075723;28;20044;-60
2023/09/15 13:43:32;;;;;;;1.30;1.10;;;;;;;27.72;46.73;101787.56;21082022;28;20548;-59
2023/09/15 13:53:35;;;;;;;1.30;1.20;;;;;;;27.65;46.81;101758.97;21090357;28;20475;-58
2023/09/15 14:03:36;;;;;;;1.30;1.05;;;;;;;27.69;46.58;101756.38;21088752;28;20040;-59
2023/09/15 14:13:38;;;;;;;1.38;1.23;;;;;;;27.72;46.61;101765.06;21090771;28;20036;-59
2023/09/15 14:23:39;;;;;;;1.30;1.20;;;;;;;27.73;46.78;101749.84;21089066;28;20036;-60
2023/09/15 14:33:40;;;;;;;1.40;1.13;;;;;;;27.74;46.49;101736.63;21088617;28;20040;-59
2023/09/15 14:43:42;;;;;;;1.42;1.33;;;;;;;27.74;46.51;101728.19;21087988;28;20085;-59
2023/09/15 14:53:43;;;;;;;1.38;1.27;;;;;;;27.73;46.79;101718.91;21086451;28;20044;-59
2023/09/15 15:03:45;;;;;;;1.10;1.00;;;;;;;27.74;46.63;101726.22;21086937;28;20040;-59
2023/09/15 15:13:47;;;;;;;1.27;1.08;;;;;;;27.74;46.79;101712.16;21086023;28;20043;-59
2023/09/15 15:23:48;;;;;;;1.27;1.17;;;;;;;27.75;46.56;101690.47;21085009;28;20043;-59
2023/09/15 15:33:53;;;;;;;1.20;1.10;;;;;;;27.75;46.42;101685.69;21084908;28;20040;-59
2023/09/15 15:43:54;;;;;;;1.33;1.13;;;;;;;27.75;46.54;101676.41;21083366;28;20399;-58
2023/09/15 15:53:56;;;;;;;1.30;1.20;;;;;;;27.74;46.64;101655.91;21082315;28;20047;-59
2023/09/15 16:03:57;;;;;;;1.30;1.20;;;;;;;27.78;46.28;101639.25;21041592;28;20070;-59
2023/09/15 16:13:58;;;;;;;1.15;1.02;;;;;;;27.78;46.49;101639.25;21081376;28;20105;-59
2023/09/15 16:24:00;;;;;;;2.50;1.10;;;;;;;27.76;46.30;101636.72;21080342;28;20035;-59
2023/09/15 16:34:01;;;;;;;1.00;1.00;;;;;;;27.67;46.41;101585.13;21079727;28;20089;-59
2023/09/15 16:44:05;;;;;;;1.35;1.10;;;;;;;27.79;46.51;101596.75;21078846;28;20074;-60
2023/09/15 16:54:09;;;;;;;1.10;1.00;;;;;;;27.80;46.28;101591.94;21077960;28;20044;-58
2023/09/15 17:04:12;;;;;;;1.20;1.02;;;;;;;27.74;46.25;101571.53;21077137;28;20482;-59
2023/09/15 17:14:14;;;;;;;1.27;1.02;;;;;;;27.82;46.28;101589.69;21076361;28;20051;-58
2023/09/15 17:24:15;;;;;;;1.20;1.10;;;;;;;27.82;46.26;101579.25;21076937;28;20036;-58
2023/09/15 17:34:17;;;;;;;1.10;1.00;;;;;;;27.83;46.10;101575.28;21075426;28;20044;-58
2023/09/15 17:44:18;;;;;;;0.90;0.90;;;;;;;27.81;46.18;101563.53;21074437;28;20475;-59
2023/09/15 17:54:24;;;;;;;1.42;1.33;;;;;;;27.86;45.96;101540.91;21075038;28;20538;-58
2023/09/15 18:04:25;;;;;;;0.93;0.88;;;;;;;27.85;46.26;101515.91;21071313;28;20043;-58
2023/09/15 18:14:29;;;;;;;0.93;0.90;;;;;;;27.88;46.15;101514.47;21074131;28;20048;-60
2023/09/15 18:24:31;;;;;;;0.82;0.82;;;;;;;27.89;46.10;101504.88;21074230;28;20047;-59
2023/09/15 18:34:33;;;;;;;1.25;1.13;;;;;;;27.89;46.07;101493.63;21087573;28;20047;-61
2023/09/15 18:44:34;;;;;;;1.27;1.17;;;;;;;27.92;46.03;101493.00;21087995;28;20483;-59
2023/09/15 18:54:37;;;;;;;1.15;1.05;;;;;;;27.88;45.79;101469.47;21047403;28;20043;-58
2023/09/15 19:04:39;;;;;;;1.17;0.93;;;;;;;27.92;45.98;101476.94;21082384;28;20052;-57
2023/09/15 19:14:40;;;;;;;2.65;1.20;;;;;;;27.92;45.09;101462.06;21071601;28;20642;-58
2023/09/15 19:24:41;;;;;;;2.00;1.02;;;;;;;27.55;42.90;101444.28;21084100;28;20044;-58
2023/09/15 19:34:43;;;;;;;0.80;0.80;;;;;;;27.23;41.75;101429.22;21078839;28;20055;-56
2023/09/15 19:44:44;;;;;;;1.23;1.13;;;;;;;27.03;41.73;101421.16;21067913;28;20063;-56
2023/09/15 19:54:46;;;;;;;2.60;1.10;;;;;;;26.88;41.06;101424.25;21079128;28;20036;-56
2023/09/15 20:04:47;;;;;;;1.33;1.10;;;;;;;26.76;40.86;101421.97;21076864;28;20453;-54
2023/09/15 20:14:53;;;;;;;1.27;1.15;;;;;;;26.58;40.99;101415.28;21061762;28;20074;-59
2023/09/15 20:24:54;;;;;;;4.47;1.33;;;;;;;26.39;40.81;101408.84;21065445;28;20048;-58
2023/09/15 20:34:56;;;;;;;3.25;1.40;;;;;;;26.32;40.68;101418.50;21065511;28;20052;-59
2023/09/15 20:44:57;;;;;;;4.07;1.30;;;;;;;26.21;40.98;101411.41;21055880;28;20109;-59
2023/09/15 20:54:59;;;;;;;7.70;2.17;;;;;;;25.84;41.80;101343.00;21052133;28;20040;-61
2023/09/15 21:05:05;;;;;;;15.45;2.30;;;;;;;26.04;41.53;101367.06;21042159;28;20075;-62
2023/09/15 21:15:07;;;;;;;8.88;2.22;;;;;;;25.94;41.25;101367.25;21069521;28;20049;-61
2023/09/15 21:25:10;;;;;;;9.43;2.67;;;;;;;25.84;41.14;101365.44;21067476;28;20647;-62
2023/09/15 21:35:11;;;;;;;10.23;2.28;;;;;;;25.78;41.37;101363.84;21066122;28;20048;-61
2023/09/15 21:45:14;;;;;;;6.43;1.92;;;;;;;25.66;41.17;101360.63;21065033;28;20054;-60
2023/09/15 21:55:18;;;;;;;3.03;1.52;;;;;;;25.59;41.75;101348.97;21054387;28;20619;-61
2023/09/15 22:05:19;;;;;;;6.85;1.50;;;;;;;25.59;42.29;101357.38;21076915;28;20093;-62
2023/09/15 22:15:21;;;;;;;4.75;1.63;;;;;;;25.56;42.50;101366.38;21086872;28;20137;-60
2023/09/15 22:25:26;;;;;;;3.30;1.90;;;;;;;25.49;42.90;101372.38;21055180;28;20044;-60
2023/09/15 22:35:28;;;;;;;3.72;1.33;;;;;;;25.48;42.87;101353.06;21089162;28;20044;-62
2023/09/15 22:45:32;;;;;;;5.50;1.80;;;;;;;25.49;43.27;101354.72;21087509;28;20036;-61
2023/09/15 22:55:33;;;;;;;12.27;2.38;;;;;;;25.46;43.03;101349.72;21071842;28;20055;-61
2023/09/15 23:05:35;;;;;;;4.40;1.58;;;;;;;25.44;42.78;101355.63;21083014;28;20490;-61
2023/09/15 23:15:40;;;;;;;3.83;1.30;;;;;;;25.34;42.51;101348.19;21055669;28;20051;-61
2023/09/15 23:25:45;;;;;;;3.92;1.50;;;;;;;25.32;42.70;101350.47;21028332;28;20036;-62
2023/09/15 23:35:46;;;;;;;2.17;1.45;;;;;;;25.31;42.54;101354.41;21075598;28;20043;-62
2023/09/15 23:45:47;;;;;;;3.55;1.60;;;;;;;25.26;42.63;101357.28;21077487;28;20121;-62
2023/09/15 23:55:51;;;;;;;1.90;1.15;;;;;;;25.25;42.44;101372.41;21073780;28;20040;-61
